createdAt,value
2018-08-13T00:01:34.868Z,14.87
2018-08-13T00:04:03.766Z,14.82
2018-08-13T00:06:32.586Z,14.80
2018-08-13T00:09:01.262Z,14.74
2018-08-13T00:11:30.214Z,14.55
2018-08-13T00:13:59.025Z,14.51
2018-08-13T00:16:27.735Z,14.55
2018-08-13T00:18:57.052Z,14.63
2018-08-13T00:21:26.072Z,14.56
2018-08-13T00:23:54.822Z,14.54
2018-08-13T00:26:23.515Z,14.54
2018-08-13T00:28:52.331Z,14.47
2018-08-13T00:31:21.091Z,14.44
2018-08-13T00:33:49.749Z,14.42
2018-08-13T00:36:18.421Z,14.33
2018-08-13T00:38:47.426Z,14.30
2018-08-13T00:41:16.076Z,14.23
2018-08-13T00:43:44.788Z,14.21
2018-08-13T00:46:13.718Z,14.17
2018-08-13T00:48:42.684Z,14.13
2018-08-13T00:51:11.897Z,14.09
2018-08-13T00:53:41.140Z,14.09
2018-08-13T00:56:09.924Z,14.02
2018-08-13T00:58:39.417Z,13.97
2018-08-13T01:01:08.815Z,13.93
2018-08-13T01:03:37.605Z,13.89
2018-08-13T01:06:06.349Z,13.85
2018-08-13T01:08:36.276Z,13.78
2018-08-13T01:11:05.184Z,13.75
2018-08-13T01:13:34.102Z,13.68
2018-08-13T01:16:03.172Z,13.59
2018-08-13T01:18:31.954Z,13.62
2018-08-13T01:21:00.691Z,13.56
2018-08-13T01:23:29.461Z,13.58
2018-08-13T01:25:58.226Z,13.52
2018-08-13T01:28:27.158Z,13.49
2018-08-13T01:30:56.040Z,13.52
2018-08-13T01:33:24.656Z,13.50
2018-08-13T01:35:54.005Z,13.52
2018-08-13T01:38:22.837Z,13.50
2018-08-13T01:40:51.442Z,13.42
2018-08-13T01:43:20.753Z,13.41
2018-08-13T01:45:49.980Z,13.28
2018-08-13T01:48:19.074Z,13.29
2018-08-13T01:50:48.380Z,13.28
2018-08-13T01:53:17.005Z,13.31
2018-08-13T01:55:45.978Z,13.29
2018-08-13T01:58:14.781Z,13.29
2018-08-13T02:00:43.552Z,13.24
2018-08-13T02:03:12.635Z,13.27
2018-08-13T02:05:41.520Z,13.27
2018-08-13T02:08:10.170Z,13.25
2018-08-13T02:10:39.160Z,13.23
2018-08-13T02:13:07.869Z,13.17
2018-08-13T02:15:36.702Z,13.12
2018-08-13T02:18:05.670Z,13.10
2018-08-13T02:20:35.095Z,13.10
2018-08-13T02:23:03.920Z,13.13
2018-08-13T02:25:33.484Z,13.16
2018-08-13T02:28:02.061Z,13.18
2018-08-13T02:30:30.961Z,13.12
2018-08-13T02:33:00.215Z,13.06
2018-08-13T02:35:28.951Z,13.10
2018-08-13T02:37:57.630Z,13.11
2018-08-13T02:40:27.486Z,13.05
2018-08-13T02:42:56.315Z,13.02
2018-08-13T02:45:25.363Z,13.04
2018-08-13T02:47:54.449Z,13.04
2018-08-13T02:50:23.117Z,12.94
2018-08-13T02:52:52.006Z,13.08
2018-08-13T02:55:20.896Z,13.05
2018-08-13T02:57:49.507Z,13.06
2018-08-13T03:00:19.011Z,13.02
2018-08-13T03:02:47.821Z,12.98
2018-08-13T03:05:17.140Z,12.96
2018-08-13T03:07:45.928Z,12.93
2018-08-13T03:10:14.604Z,12.95
2018-08-13T03:12:43.684Z,12.92
2018-08-13T03:15:14.902Z,12.93
2018-08-13T03:17:43.820Z,12.90
2018-08-13T03:20:13.726Z,12.91
2018-08-13T03:22:42.892Z,12.93
2018-08-13T03:25:11.903Z,12.95
2018-08-13T03:27:40.747Z,12.94
2018-08-13T03:30:11.138Z,12.94
2018-08-13T03:32:40.480Z,12.91
2018-08-13T03:35:09.878Z,12.83
2018-08-13T03:37:38.636Z,12.82
2018-08-13T03:40:10.492Z,12.77
2018-08-13T03:42:39.442Z,12.72
2018-08-13T03:45:09.791Z,12.73
2018-08-13T03:47:38.595Z,12.74
2018-08-13T03:50:08.790Z,12.71
2018-08-13T03:52:37.415Z,12.72
2018-08-13T03:55:07.719Z,12.70
2018-08-13T03:57:36.845Z,12.63
2018-08-13T04:00:10.325Z,12.62
2018-08-13T04:02:38.967Z,12.65
2018-08-13T04:05:08.732Z,12.72
2018-08-13T04:07:38.396Z,12.72
2018-08-13T04:10:09.259Z,12.67
2018-08-13T04:12:39.806Z,12.68
2018-08-13T04:15:09.921Z,12.71
2018-08-13T04:17:39.968Z,12.70
2018-08-13T04:20:10.392Z,12.67
2018-08-13T04:22:39.546Z,12.73
2018-08-13T04:25:09.592Z,12.76
2018-08-13T04:27:39.931Z,12.78
2018-08-13T04:30:17.912Z,12.82
2018-08-13T04:32:47.454Z,12.90
2018-08-13T04:35:16.616Z,12.90
2018-08-13T04:37:46.662Z,13.03
2018-08-13T04:40:16.814Z,13.11
2018-08-13T04:42:48.150Z,13.12
2018-08-13T04:45:17.209Z,13.08
2018-08-13T04:47:50.976Z,13.11
2018-08-13T04:50:19.847Z,13.12
2018-08-13T04:52:48.976Z,13.16
2018-08-13T04:55:18.360Z,13.28
2018-08-13T04:57:47.220Z,13.50
2018-08-13T05:00:15.832Z,13.76
2018-08-13T05:02:44.736Z,14.12
2018-08-13T05:05:14.479Z,14.37
2018-08-13T05:07:43.106Z,14.57
2018-08-13T05:10:12.288Z,14.83
2018-08-13T05:12:41.723Z,15.14
2018-08-13T05:15:11.348Z,15.57
2018-08-13T05:17:39.987Z,15.93
2018-08-13T05:20:09.717Z,16.35
2018-08-13T05:22:38.460Z,16.70
2018-08-13T05:25:08.532Z,16.57
2018-08-13T05:27:37.975Z,16.59
2018-08-13T05:30:08.072Z,16.49
2018-08-13T05:32:36.829Z,16.47
2018-08-13T05:35:06.675Z,16.14
2018-08-13T05:37:35.673Z,16.22
2018-08-13T05:40:05.847Z,16.44
2018-08-13T05:42:34.891Z,16.79
2018-08-13T05:45:04.590Z,17.15
2018-08-13T05:47:33.885Z,17.62
2018-08-13T05:50:02.781Z,18.34
2018-08-13T05:52:31.456Z,19.22
2018-08-13T05:55:00.243Z,20.28
2018-08-13T05:57:29.102Z,20.90
2018-08-13T05:59:58.001Z,20.93
2018-08-13T06:02:27.250Z,20.81
2018-08-13T06:04:56.211Z,20.50
2018-08-13T06:07:25.369Z,20.55
2018-08-13T06:09:54.262Z,20.82
2018-08-13T06:12:23.588Z,20.59
2018-08-13T06:14:52.212Z,20.95
2018-08-13T06:17:21.511Z,21.21
2018-08-13T06:19:50.551Z,21.68
2018-08-13T06:22:19.596Z,22.44
2018-08-13T06:24:48.332Z,23.33
2018-08-13T06:27:16.939Z,24.07
2018-08-13T06:29:45.742Z,24.58
2018-08-13T06:32:14.706Z,25.14
2018-08-13T06:34:44.198Z,25.64
2018-08-13T06:37:13.162Z,26.57
2018-08-13T06:39:42.238Z,26.88
2018-08-13T06:42:11.633Z,27.19
2018-08-13T06:44:40.454Z,27.76
2018-08-13T06:47:09.766Z,27.52
2018-08-13T06:49:38.342Z,27.38
2018-08-13T06:52:07.539Z,27.31
2018-08-13T06:54:36.652Z,26.99
2018-08-13T06:57:06.562Z,25.98
2018-08-13T06:59:36.149Z,24.66
2018-08-13T07:02:05.287Z,23.93
2018-08-13T07:04:34.843Z,23.27
2018-08-13T07:07:03.912Z,22.49
2018-08-13T07:09:33.157Z,22.19
2018-08-13T07:12:01.848Z,21.99
2018-08-13T07:14:30.527Z,21.77
2018-08-13T07:16:59.556Z,21.84
2018-08-13T07:19:28.461Z,21.94
2018-08-13T07:21:57.267Z,22.00
2018-08-13T07:24:26.395Z,22.09
2018-08-13T07:26:56.532Z,22.21
2018-08-13T07:29:26.946Z,22.38
2018-08-13T07:31:55.691Z,22.61
2018-08-13T07:34:25.258Z,22.79
2018-08-13T07:36:54.496Z,22.94
2018-08-13T07:39:23.176Z,23.04
2018-08-13T07:41:51.919Z,23.26
2018-08-13T07:44:20.883Z,23.44
2018-08-13T07:46:49.681Z,23.68
2018-08-13T07:49:18.686Z,24.12
2018-08-13T07:51:47.466Z,25.07
2018-08-13T07:54:16.231Z,27.24
2018-08-13T07:56:44.962Z,28.50
2018-08-13T07:59:14.503Z,28.69
2018-08-13T08:01:43.697Z,28.42
2018-08-13T08:04:12.793Z,28.06
2018-08-13T08:06:42.582Z,27.35
2018-08-13T08:09:13.171Z,26.66
2018-08-13T08:11:42.866Z,25.96
2018-08-13T08:14:11.888Z,25.45
2018-08-13T08:16:40.778Z,25.12
2018-08-13T08:19:09.639Z,24.90
2018-08-13T08:21:38.308Z,24.74
2018-08-13T08:24:07.487Z,24.65
2018-08-13T08:26:36.153Z,24.39
2018-08-13T08:29:05.832Z,24.27
2018-08-13T08:31:35.392Z,24.19
2018-08-13T08:34:05.665Z,24.15
2018-08-13T08:36:34.736Z,24.08
2018-08-13T08:39:05.971Z,24.08
2018-08-13T08:41:36.274Z,24.19
2018-08-13T08:44:06.250Z,24.27
2018-08-13T08:46:35.807Z,24.25
2018-08-13T08:49:05.048Z,24.14
2018-08-13T08:51:33.918Z,23.99
2018-08-13T08:54:03.746Z,23.93
2018-08-13T08:56:32.573Z,23.91
2018-08-13T08:59:02.517Z,23.87
2018-08-13T09:01:32.010Z,23.81
2018-08-13T09:04:01.840Z,23.82
2018-08-13T09:06:30.484Z,23.83
2018-08-13T09:08:59.548Z,23.84
2018-08-13T09:11:30.215Z,23.84
2018-08-13T09:13:59.198Z,23.84
2018-08-13T09:16:28.427Z,23.77
2018-08-13T09:20:10.281Z,23.80
2018-08-13T09:22:50.716Z,23.91
2018-08-13T09:25:30.549Z,24.06
2018-08-13T09:28:10.526Z,24.09
2018-08-13T09:30:50.443Z,24.20
2018-08-13T09:33:30.443Z,24.15
2018-08-13T09:35:59.552Z,24.21
2018-08-13T09:38:28.378Z,24.17
2018-08-13T09:40:57.052Z,24.10
2018-08-13T09:43:25.984Z,24.10
2018-08-13T09:45:54.623Z,24.09
2018-08-13T09:48:23.650Z,24.01
2018-08-13T09:50:52.619Z,23.96
2018-08-13T09:53:22.169Z,23.81
2018-08-13T09:55:51.098Z,23.70
2018-08-13T09:58:21.014Z,23.72
2018-08-13T10:00:54.763Z,23.79
2018-08-13T10:03:23.772Z,23.81
2018-08-13T10:05:53.411Z,23.77
2018-08-13T10:08:22.531Z,23.81
2018-08-13T10:10:51.721Z,23.75
2018-08-13T10:13:20.839Z,23.70
2018-08-13T10:15:49.762Z,23.67
2018-08-13T10:18:18.502Z,23.77
2018-08-13T10:20:47.540Z,23.73
2018-08-13T10:23:16.683Z,23.69
2018-08-13T10:25:45.684Z,23.79
2018-08-13T10:28:14.461Z,23.82
2018-08-13T10:30:43.129Z,23.80
2018-08-13T10:33:12.659Z,23.90
2018-08-13T10:35:41.804Z,24.03
2018-08-13T10:38:12.299Z,24.13
2018-08-13T10:40:41.239Z,24.22
2018-08-13T10:43:10.552Z,24.21
2018-08-13T10:45:40.690Z,24.30
2018-08-13T10:48:09.637Z,24.27
2018-08-13T10:50:38.468Z,24.38
2018-08-13T10:53:07.458Z,24.40
2018-08-13T10:55:37.326Z,24.42
2018-08-13T10:58:06.529Z,24.37
2018-08-13T11:00:35.347Z,24.26
2018-08-13T11:03:04.419Z,24.10
2018-08-13T11:05:33.167Z,23.95
2018-08-13T11:08:02.485Z,23.93
2018-08-13T11:10:31.207Z,23.84
2018-08-13T11:13:00.723Z,23.89
2018-08-13T11:15:29.423Z,23.64
2018-08-13T11:17:58.321Z,23.74
2018-08-13T11:20:27.874Z,23.74
2018-08-13T11:22:57.160Z,23.73
2018-08-13T11:25:26.162Z,23.73
2018-08-13T11:27:58.586Z,23.79
2018-08-13T11:30:27.633Z,23.77
2018-08-13T11:32:57.129Z,23.65
2018-08-13T11:35:26.217Z,23.67
2018-08-13T11:37:55.013Z,23.68
2018-08-13T11:40:23.850Z,23.83
2018-08-13T11:42:52.763Z,23.99
2018-08-13T11:45:22.038Z,24.16
2018-08-13T11:47:51.468Z,24.18
2018-08-13T11:50:21.092Z,24.35
2018-08-13T11:52:51.027Z,24.40
2018-08-13T11:55:20.608Z,24.49
2018-08-13T11:57:50.313Z,24.52
2018-08-13T12:00:19.335Z,24.44
2018-08-13T12:02:48.284Z,24.29
2018-08-13T12:05:17.870Z,24.27
2018-08-13T12:07:46.729Z,24.17
2018-08-13T12:10:15.948Z,24.15
2018-08-13T12:12:45.168Z,24.16
2018-08-13T12:15:14.615Z,24.17
2018-08-13T12:17:43.751Z,24.14
2018-08-13T12:20:15.035Z,24.17
2018-08-13T12:22:44.578Z,24.10
2018-08-13T12:25:24.498Z,23.99
2018-08-13T12:27:53.793Z,23.92
2018-08-13T12:30:22.570Z,23.82
2018-08-13T12:32:53.439Z,23.74
2018-08-13T12:35:22.206Z,23.67
2018-08-13T12:37:51.350Z,23.64
2018-08-13T12:40:20.459Z,23.61
2018-08-13T12:42:49.418Z,23.59
2018-08-13T12:45:18.948Z,23.49
2018-08-13T12:47:48.305Z,23.45
2018-08-13T12:50:18.635Z,23.36
2018-08-13T12:52:48.551Z,23.33
2018-08-13T12:55:17.810Z,23.32
2018-08-13T12:57:46.643Z,23.38
2018-08-13T13:00:17.330Z,23.51
2018-08-13T13:02:46.176Z,23.67
2018-08-13T13:05:16.273Z,23.77
2018-08-13T13:07:46.949Z,23.91
2018-08-13T13:10:17.039Z,24.18
2018-08-13T13:12:46.022Z,24.64
2018-08-13T13:15:17.785Z,24.94
2018-08-13T13:17:46.696Z,25.13
2018-08-13T13:20:18.274Z,25.36
2018-08-13T13:22:47.799Z,25.56
2018-08-13T13:25:17.299Z,25.74
2018-08-13T13:27:46.638Z,25.49
2018-08-13T13:30:16.657Z,25.52
2018-08-13T13:32:46.579Z,25.41
2018-08-13T13:35:17.026Z,25.38
2018-08-13T13:37:46.316Z,25.43
2018-08-13T13:40:16.487Z,25.61
2018-08-13T13:42:45.313Z,25.75
2018-08-13T13:45:15.488Z,25.87
2018-08-13T13:47:45.334Z,25.78
2018-08-13T13:50:15.715Z,25.80
2018-08-13T13:52:44.939Z,25.90
2018-08-13T13:55:14.092Z,25.99
2018-08-13T13:57:42.975Z,26.07
2018-08-13T14:00:18.126Z,26.13
2018-08-13T14:02:48.525Z,26.12
2018-08-13T14:05:18.078Z,26.04
2018-08-13T14:07:46.925Z,26.08
2018-08-13T14:10:17.532Z,26.19
2018-08-13T14:12:46.928Z,26.30
2018-08-13T14:15:17.506Z,26.26
2018-08-13T14:17:46.500Z,26.38
2018-08-13T14:20:15.560Z,26.65
2018-08-13T14:22:44.154Z,26.83
2018-08-13T14:25:14.279Z,26.95
2018-08-13T14:27:43.458Z,27.17
2018-08-13T14:30:22.908Z,27.21
2018-08-13T14:32:51.793Z,27.18
2018-08-13T14:35:21.799Z,27.08
2018-08-13T14:37:51.449Z,26.97
2018-08-13T14:40:20.197Z,26.96
2018-08-13T14:42:49.415Z,26.96
2018-08-13T14:45:19.062Z,26.84
2018-08-13T14:47:49.581Z,26.90
2018-08-13T14:50:18.433Z,27.04
2018-08-13T14:52:48.464Z,26.96
2018-08-13T14:55:18.556Z,26.86
2018-08-13T14:57:47.518Z,26.87
2018-08-13T15:00:30.804Z,26.71
2018-08-13T15:02:59.850Z,26.66
2018-08-13T15:05:28.763Z,26.51
2018-08-13T15:07:57.650Z,26.48
2018-08-13T15:10:26.863Z,26.50
2018-08-13T15:12:56.189Z,26.58
2018-08-13T15:15:25.143Z,26.58
2018-08-13T15:17:54.319Z,26.58
2018-08-13T15:20:25.325Z,26.51
2018-08-13T15:22:54.725Z,26.46
2018-08-13T15:25:23.934Z,26.33
2018-08-13T15:27:53.274Z,26.36
2018-08-13T15:30:22.779Z,26.37
2018-08-13T15:32:52.409Z,26.47
2018-08-13T15:35:21.472Z,26.51
2018-08-13T15:37:50.836Z,26.51
2018-08-13T15:40:20.070Z,26.51
2018-08-13T15:42:49.401Z,26.59
2018-08-13T15:45:20.129Z,26.71
2018-08-13T15:47:49.621Z,26.60
2018-08-13T15:50:20.064Z,26.46
2018-08-13T15:52:49.535Z,26.32
2018-08-13T15:55:18.641Z,26.20
2018-08-13T15:57:47.939Z,26.14
2018-08-13T16:00:23.760Z,26.07
2018-08-13T16:02:52.805Z,26.03
2018-08-13T16:05:22.124Z,25.96
2018-08-13T16:07:51.463Z,25.90
2018-08-13T16:10:20.492Z,25.78
2018-08-13T16:12:49.353Z,25.52
2018-08-13T16:15:18.254Z,25.23
2018-08-13T16:17:47.140Z,25.08
2018-08-13T16:20:17.994Z,24.86
2018-08-13T16:22:47.523Z,24.65
2018-08-13T16:25:17.018Z,24.47
2018-08-13T16:27:46.699Z,24.42
2018-08-13T16:30:21.463Z,24.31
2018-08-13T16:32:51.189Z,24.16
2018-08-13T16:35:20.680Z,24.04
2018-08-13T16:37:49.825Z,23.72
2018-08-13T16:40:19.270Z,23.39
2018-08-13T16:42:48.502Z,23.11
2018-08-13T16:45:18.529Z,22.84
2018-08-13T16:47:47.620Z,22.71
2018-08-13T16:50:33.019Z,22.44
2018-08-13T16:53:02.164Z,22.18
2018-08-13T16:55:32.435Z,22.04
2018-08-13T16:58:02.024Z,21.93
2018-08-13T17:00:31.962Z,21.93
2018-08-13T17:03:01.146Z,21.94
2018-08-13T17:05:31.786Z,22.08
2018-08-13T17:08:00.648Z,22.03
2018-08-13T17:10:30.150Z,21.82
2018-08-13T17:12:59.494Z,21.64
2018-08-13T17:15:31.737Z,21.86
2018-08-13T17:18:01.911Z,21.91
2018-08-13T17:20:31.972Z,21.67
2018-08-13T17:23:01.055Z,21.50
2018-08-13T17:25:30.211Z,21.61
2018-08-13T17:28:00.113Z,21.67
2018-08-13T17:30:29.478Z,21.79
2018-08-13T17:33:00.105Z,21.90
2018-08-13T17:35:36.675Z,21.95
2018-08-13T17:38:07.841Z,21.97
2018-08-13T17:40:37.466Z,21.88
2018-08-13T17:43:08.071Z,21.81
2018-08-13T17:45:36.806Z,21.58
2018-08-13T17:48:08.165Z,21.49
2018-08-13T17:50:37.322Z,21.41
2018-08-13T17:53:07.304Z,21.20
2018-08-13T17:55:36.441Z,21.12
2018-08-13T17:58:05.856Z,21.02
2018-08-13T18:00:34.946Z,20.90
2018-08-13T18:03:04.633Z,20.85
2018-08-13T18:05:33.550Z,20.84
2018-08-13T18:08:02.720Z,20.82
2018-08-13T18:10:33.388Z,20.80
2018-08-13T18:13:03.980Z,20.81
2018-08-13T18:15:32.935Z,20.79
2018-08-13T18:18:03.297Z,20.77
2018-08-13T18:20:32.061Z,20.76
2018-08-13T18:23:01.047Z,20.75
2018-08-13T18:25:30.645Z,20.79
2018-08-13T18:27:59.510Z,20.77
2018-08-13T18:30:29.595Z,20.62
2018-08-13T18:32:58.960Z,20.58
2018-08-13T18:35:28.195Z,20.52
2018-08-13T18:37:57.484Z,20.50
2018-08-13T18:40:31.419Z,20.38
2018-08-13T18:43:00.751Z,20.36
2018-08-13T18:45:31.846Z,20.38
2018-08-13T18:48:00.994Z,20.27
2018-08-13T18:50:30.010Z,20.22
2018-08-13T18:52:59.547Z,20.07
2018-08-13T18:55:28.695Z,20.09
2018-08-13T18:57:57.675Z,20.04
2018-08-13T19:00:29.301Z,19.88
2018-08-13T19:03:00.321Z,19.83
2018-08-13T19:05:29.655Z,19.77
2018-08-13T19:07:58.696Z,19.64
2018-08-13T19:10:29.137Z,19.61
2018-08-13T19:12:58.257Z,19.56
2018-08-13T19:15:28.982Z,19.50
2018-08-13T19:17:58.546Z,19.46
2018-08-13T19:20:27.326Z,19.38
2018-08-13T19:22:56.141Z,19.33
2018-08-13T19:25:27.330Z,19.22
2018-08-13T19:27:56.421Z,19.28
2018-08-13T19:30:25.990Z,19.30
2018-08-13T19:32:55.151Z,19.30
2018-08-13T19:35:24.090Z,19.27
2018-08-13T19:37:53.192Z,19.24
2018-08-13T19:40:24.447Z,19.22
2018-08-13T19:42:53.647Z,19.17
2018-08-13T19:45:23.355Z,19.20
2018-08-13T19:47:52.913Z,19.15
2018-08-13T19:50:22.230Z,19.16
2018-08-13T19:52:51.712Z,19.12
2018-08-13T19:55:21.168Z,19.03
2018-08-13T19:57:50.020Z,19.03
2018-08-13T20:00:20.815Z,19.05
2018-08-13T20:02:51.916Z,19.05
2018-08-13T20:05:22.492Z,19.01
2018-08-13T20:07:52.817Z,19.04
2018-08-13T20:10:21.812Z,19.05
2018-08-13T20:12:51.458Z,19.05
2018-08-13T20:15:20.447Z,19.06
2018-08-13T20:17:50.397Z,19.05
2018-08-13T20:20:21.019Z,19.03
2018-08-13T20:22:51.218Z,19.01
2018-08-13T20:25:22.198Z,18.93
2018-08-13T20:27:52.281Z,18.92
2018-08-13T20:30:23.311Z,18.87
2018-08-13T20:32:53.786Z,18.87
2018-08-13T20:35:23.122Z,18.84
2018-08-13T20:37:52.852Z,18.81
2018-08-13T20:40:22.461Z,18.79
2018-08-13T20:42:51.791Z,18.72
2018-08-13T20:45:22.255Z,18.68
2018-08-13T20:47:52.064Z,18.64
2018-08-13T20:50:25.269Z,18.63
2018-08-13T20:52:55.175Z,18.49
2018-08-13T20:55:26.521Z,18.48
2018-08-13T20:57:56.661Z,18.51
2018-08-13T21:00:27.842Z,18.51
2018-08-13T21:02:57.128Z,18.51
2018-08-13T21:05:26.496Z,18.51
2018-08-13T21:07:55.556Z,18.55
2018-08-13T21:10:25.324Z,18.64
2018-08-13T21:12:54.317Z,18.68
2018-08-13T21:15:23.442Z,18.74
2018-08-13T21:17:52.398Z,18.73
2018-08-13T21:20:24.602Z,18.73
2018-08-13T21:22:53.785Z,18.75
2018-08-13T21:25:22.615Z,18.72
2018-08-13T21:27:51.293Z,18.70
2018-08-13T21:30:20.337Z,18.75
2018-08-13T21:32:49.225Z,18.76
2018-08-13T21:35:20.213Z,18.77
2018-08-13T21:37:50.102Z,18.79
2018-08-13T21:40:18.838Z,18.82
2018-08-13T21:42:48.026Z,18.79
2018-08-13T21:45:16.866Z,18.76
2018-08-13T21:47:45.828Z,18.75
2018-08-13T21:50:17.077Z,18.75
2018-08-13T21:52:47.412Z,18.73
2018-08-13T21:55:16.636Z,18.73
2018-08-13T21:57:45.366Z,18.73
2018-08-13T22:00:20.578Z,18.72
2018-08-13T22:02:49.980Z,18.69
2018-08-13T22:05:19.326Z,18.71
2018-08-13T22:07:48.451Z,18.70
2018-08-13T22:10:17.740Z,18.69
2018-08-13T22:12:47.057Z,18.67
2018-08-13T22:15:34.036Z,18.61
2018-08-13T22:18:07.628Z,18.63
2018-08-13T22:20:37.972Z,18.64
2018-08-13T22:23:08.629Z,18.60
2018-08-13T22:25:42.456Z,18.60
2018-08-13T22:28:12.377Z,18.57
2018-08-13T22:30:41.080Z,18.51
2018-08-13T22:33:11.842Z,18.45
2018-08-13T22:35:41.080Z,18.40
2018-08-13T22:38:10.446Z,18.37
2018-08-13T22:40:39.808Z,18.33
2018-08-13T22:43:08.966Z,18.29
2018-08-13T22:45:37.942Z,18.26
2018-08-13T22:48:07.437Z,18.22
2018-08-13T22:50:36.615Z,18.22
2018-08-13T22:53:05.710Z,18.22
2018-08-13T22:55:35.842Z,18.21
2018-08-13T22:58:05.035Z,18.20
2018-08-13T23:00:34.606Z,18.24
2018-08-13T23:03:03.668Z,18.24
2018-08-13T23:05:32.307Z,18.20
2018-08-13T23:08:01.155Z,18.22
2018-08-13T23:10:29.826Z,18.24
2018-08-13T23:12:58.521Z,18.28
2018-08-13T23:15:27.611Z,18.31
2018-08-13T23:17:56.576Z,18.36
2018-08-13T23:20:28.289Z,18.37
2018-08-13T23:23:00.207Z,18.37
2018-08-13T23:25:29.741Z,18.39
2018-08-13T23:27:59.602Z,18.40
2018-08-13T23:30:29.065Z,18.39
2018-08-13T23:32:59.363Z,18.36
2018-08-13T23:35:29.105Z,18.34
2018-08-13T23:37:58.433Z,18.30
2018-08-13T23:40:28.855Z,18.23
2018-08-13T23:42:57.940Z,18.25
2018-08-13T23:45:31.256Z,18.22
2018-08-13T23:48:00.285Z,18.24
2018-08-13T23:50:29.476Z,18.21
2018-08-13T23:53:00.233Z,18.17
2018-08-13T23:55:31.415Z,18.11
2018-08-13T23:58:01.231Z,18.08
